sensor_id;sensor_type;location;lat;lon;timestamp;P1;durP1;ratioP1;P2;durP2;ratioP2
34890;SDS011;21103;51.358;12.412;2022-08-16T00:00:42;16.70;;;14.07;;
34890;SDS011;21103;51.358;12.412;2022-08-16T00:03:09;17.75;;;13.82;;
34890;SDS011;21103;51.358;12.412;2022-08-16T00:05:35;17.83;;;14.00;;
34890;SDS011;21103;51.358;12.412;2022-08-16T00:08:01;18.83;;;14.43;;
34890;SDS011;21103;51.358;12.412;2022-08-16T00:10:29;19.23;;;14.57;;
34890;SDS011;21103;51.358;12.412;2022-08-16T00:12:57;22.73;;;14.95;;
34890;SDS011;21103;51.358;12.412;2022-08-16T00:15:34;19.55;;;14.52;;
34890;SDS011;21103;51.358;12.412;2022-08-16T00:18:05;20.08;;;15.05;;
34890;SDS011;21103;51.358;12.412;2022-08-16T00:20:31;19.48;;;14.05;;
34890;SDS011;21103;51.358;12.412;2022-08-16T00:22:57;20.05;;;14.98;;
34890;SDS011;21103;51.358;12.412;2022-08-16T00:25:23;19.63;;;14.32;;
34890;SDS011;21103;51.358;12.412;2022-08-16T00:27:50;19.95;;;14.45;;
34890;SDS011;21103;51.358;12.412;2022-08-16T00:30:16;18.35;;;13.68;;
34890;SDS011;21103;51.358;12.412;2022-08-16T00:32:44;20.35;;;15.10;;
34890;SDS011;21103;51.358;12.412;2022-08-16T00:35:13;17.52;;;13.52;;
34890;SDS011;21103;51.358;12.412;2022-08-16T00:37:42;19.13;;;15.15;;
34890;SDS011;21103;51.358;12.412;2022-08-16T00:40:09;19.02;;;13.65;;
34890;SDS011;21103;51.358;12.412;2022-08-16T00:42:36;18.23;;;14.27;;
34890;SDS011;21103;51.358;12.412;2022-08-16T00:45:11;26.42;;;16.48;;
34890;SDS011;21103;51.358;12.412;2022-08-16T00:47:40;27.80;;;15.43;;
34890;SDS011;21103;51.358;12.412;2022-08-16T00:50:10;19.42;;;15.50;;
34890;SDS011;21103;51.358;12.412;2022-08-16T00:52:36;18.00;;;14.75;;
34890;SDS011;21103;51.358;12.412;2022-08-16T00:55:03;19.70;;;13.77;;
34890;SDS011;21103;51.358;12.412;2022-08-16T00:57:28;20.38;;;15.27;;
34890;SDS011;21103;51.358;12.412;2022-08-16T00:59:55;19.38;;;13.43;;
34890;SDS011;21103;51.358;12.412;2022-08-16T01:02:20;21.35;;;13.93;;
34890;SDS011;21103;51.358;12.412;2022-08-16T01:04:46;16.17;;;11.95;;
34890;SDS011;21103;51.358;12.412;2022-08-16T01:07:12;18.98;;;14.23;;
34890;SDS011;21103;51.358;12.412;2022-08-16T01:09:37;18.58;;;12.98;;
34890;SDS011;21103;51.358;12.412;2022-08-16T01:12:04;20.15;;;14.50;;
34890;SDS011;21103;51.358;12.412;2022-08-16T01:14:34;16.85;;;12.73;;
34890;SDS011;21103;51.358;12.412;2022-08-16T01:17:06;20.50;;;15.48;;
34890;SDS011;21103;51.358;12.412;2022-08-16T01:19:34;15.45;;;11.73;;
34890;SDS011;21103;51.358;12.412;2022-08-16T01:22:15;14.82;;;11.57;;
34890;SDS011;21103;51.358;12.412;2022-08-16T01:25:07;14.00;;;11.80;;
34890;SDS011;21103;51.358;12.412;2022-08-16T01:27:41;13.25;;;10.95;;
34890;SDS011;21103;51.358;12.412;2022-08-16T01:30:14;18.83;;;12.90;;
34890;SDS011;21103;51.358;12.412;2022-08-16T01:32:42;13.43;;;11.43;;
34890;SDS011;21103;51.358;12.412;2022-08-16T01:35:09;14.75;;;12.50;;
34890;SDS011;21103;51.358;12.412;2022-08-16T01:37:41;17.85;;;12.90;;
34890;SDS011;21103;51.358;12.412;2022-08-16T01:40:08;15.73;;;12.82;;
34890;SDS011;21103;51.358;12.412;2022-08-16T01:42:34;16.25;;;12.40;;
34890;SDS011;21103;51.358;12.412;2022-08-16T01:44:59;17.20;;;13.35;;
34890;SDS011;21103;51.358;12.412;2022-08-16T01:47:25;20.05;;;14.90;;
34890;SDS011;21103;51.358;12.412;2022-08-16T01:49:52;18.30;;;13.80;;
34890;SDS011;21103;51.358;12.412;2022-08-16T01:52:17;16.40;;;12.98;;
34890;SDS011;21103;51.358;12.412;2022-08-16T01:54:43;16.52;;;13.13;;
34890;SDS011;21103;51.358;12.412;2022-08-16T01:57:09;18.30;;;14.55;;
34890;SDS011;21103;51.358;12.412;2022-08-16T01:59:35;17.60;;;14.13;;
34890;SDS011;21103;51.358;12.412;2022-08-16T02:02:01;18.42;;;14.85;;
34890;SDS011;21103;51.358;12.412;2022-08-16T02:04:27;19.25;;;13.20;;
34890;SDS011;21103;51.358;12.412;2022-08-16T02:06:54;19.33;;;14.15;;
34890;SDS011;21103;51.358;12.412;2022-08-16T02:09:20;16.75;;;13.65;;
34890;SDS011;21103;51.358;12.412;2022-08-16T02:11:49;20.90;;;13.68;;
34890;SDS011;21103;51.358;12.412;2022-08-16T02:14:17;18.15;;;13.25;;
34890;SDS011;21103;51.358;12.412;2022-08-16T02:16:43;17.05;;;14.18;;
34890;SDS011;21103;51.358;12.412;2022-08-16T02:19:09;15.73;;;13.13;;
34890;SDS011;21103;51.358;12.412;2022-08-16T02:21:37;15.35;;;13.50;;
34890;SDS011;21103;51.358;12.412;2022-08-16T02:24:04;17.13;;;12.85;;
34890;SDS011;21103;51.358;12.412;2022-08-16T02:26:29;17.27;;;12.65;;
34890;SDS011;21103;51.358;12.412;2022-08-16T02:28:55;17.42;;;14.00;;
34890;SDS011;21103;51.358;12.412;2022-08-16T02:31:21;14.75;;;11.20;;
34890;SDS011;21103;51.358;12.412;2022-08-16T02:33:46;13.40;;;11.75;;
34890;SDS011;21103;51.358;12.412;2022-08-16T02:36:12;13.18;;;11.75;;
34890;SDS011;21103;51.358;12.412;2022-08-16T02:38:39;14.40;;;12.43;;
34890;SDS011;21103;51.358;12.412;2022-08-16T02:41:05;20.00;;;12.75;;
34890;SDS011;21103;51.358;12.412;2022-08-16T02:43:32;13.30;;;10.77;;
34890;SDS011;21103;51.358;12.412;2022-08-16T02:45:59;17.92;;;12.75;;
34890;SDS011;21103;51.358;12.412;2022-08-16T02:48:25;14.55;;;12.13;;
34890;SDS011;21103;51.358;12.412;2022-08-16T02:50:52;17.85;;;11.35;;
34890;SDS011;21103;51.358;12.412;2022-08-16T02:53:18;15.07;;;12.30;;
34890;SDS011;21103;51.358;12.412;2022-08-16T02:55:43;14.85;;;12.23;;
34890;SDS011;21103;51.358;12.412;2022-08-16T02:58:10;17.48;;;11.50;;
34890;SDS011;21103;51.358;12.412;2022-08-16T03:00:35;12.80;;;11.20;;
34890;SDS011;21103;51.358;12.412;2022-08-16T03:03:01;16.10;;;11.70;;
34890;SDS011;21103;51.358;12.412;2022-08-16T03:05:27;15.80;;;10.32;;
34890;SDS011;21103;51.358;12.412;2022-08-16T03:07:52;11.70;;;10.50;;
34890;SDS011;21103;51.358;12.412;2022-08-16T03:10:18;13.23;;;10.30;;
34890;SDS011;21103;51.358;12.412;2022-08-16T03:12:43;13.45;;;11.20;;
34890;SDS011;21103;51.358;12.412;2022-08-16T03:15:11;14.38;;;10.70;;
34890;SDS011;21103;51.358;12.412;2022-08-16T03:17:38;20.30;;;11.93;;
34890;SDS011;21103;51.358;12.412;2022-08-16T03:20:05;14.32;;;11.80;;
34890;SDS011;21103;51.358;12.412;2022-08-16T03:22:33;20.35;;;11.60;;
34890;SDS011;21103;51.358;12.412;2022-08-16T03:25:00;17.67;;;10.95;;
34890;SDS011;21103;51.358;12.412;2022-08-16T03:27:29;16.90;;;12.32;;
34890;SDS011;21103;51.358;12.412;2022-08-16T03:29:55;15.52;;;11.77;;
34890;SDS011;21103;51.358;12.412;2022-08-16T03:32:21;12.55;;;10.40;;
34890;SDS011;21103;51.358;12.412;2022-08-16T03:34:46;16.17;;;12.10;;
34890;SDS011;21103;51.358;12.412;2022-08-16T03:37:12;13.57;;;11.30;;
34890;SDS011;21103;51.358;12.412;2022-08-16T03:39:38;14.90;;;11.68;;
34890;SDS011;21103;51.358;12.412;2022-08-16T03:42:04;12.82;;;11.35;;
34890;SDS011;21103;51.358;12.412;2022-08-16T03:44:30;14.63;;;11.40;;
34890;SDS011;21103;51.358;12.412;2022-08-16T03:46:56;13.23;;;10.88;;
34890;SDS011;21103;51.358;12.412;2022-08-16T03:49:22;13.23;;;9.65;;
34890;SDS011;21103;51.358;12.412;2022-08-16T03:51:48;12.00;;;9.75;;
34890;SDS011;21103;51.358;12.412;2022-08-16T03:54:13;16.95;;;10.25;;
34890;SDS011;21103;51.358;12.412;2022-08-16T03:56:39;14.30;;;11.20;;
34890;SDS011;21103;51.358;12.412;2022-08-16T03:59:05;17.92;;;10.40;;
34890;SDS011;21103;51.358;12.412;2022-08-16T04:01:31;12.13;;;9.73;;
34890;SDS011;21103;51.358;12.412;2022-08-16T04:03:56;12.82;;;9.20;;
34890;SDS011;21103;51.358;12.412;2022-08-16T04:06:22;11.30;;;10.02;;
34890;SDS011;21103;51.358;12.412;2022-08-16T04:08:47;19.70;;;10.10;;
34890;SDS011;21103;51.358;12.412;2022-08-16T04:11:14;11.35;;;9.45;;
34890;SDS011;21103;51.358;12.412;2022-08-16T04:13:39;12.73;;;10.15;;
34890;SDS011;21103;51.358;12.412;2022-08-16T04:16:05;12.43;;;9.48;;
34890;SDS011;21103;51.358;12.412;2022-08-16T04:18:31;10.63;;;8.70;;
34890;SDS011;21103;51.358;12.412;2022-08-16T04:20:56;12.40;;;8.60;;
34890;SDS011;21103;51.358;12.412;2022-08-16T04:23:22;16.02;;;9.45;;
34890;SDS011;21103;51.358;12.412;2022-08-16T04:25:48;15.30;;;8.27;;
34890;SDS011;21103;51.358;12.412;2022-08-16T04:28:14;14.68;;;8.45;;
34890;SDS011;21103;51.358;12.412;2022-08-16T04:30:40;10.00;;;8.40;;
34890;SDS011;21103;51.358;12.412;2022-08-16T04:33:06;13.23;;;8.45;;
34890;SDS011;21103;51.358;12.412;2022-08-16T04:35:32;14.85;;;8.23;;
34890;SDS011;21103;51.358;12.412;2022-08-16T04:37:58;12.68;;;9.07;;
34890;SDS011;21103;51.358;12.412;2022-08-16T04:40:24;12.05;;;8.15;;
34890;SDS011;21103;51.358;12.412;2022-08-16T04:42:51;13.40;;;8.38;;
34890;SDS011;21103;51.358;12.412;2022-08-16T04:45:17;8.15;;;6.88;;
34890;SDS011;21103;51.358;12.412;2022-08-16T04:47:43;10.13;;;7.70;;
34890;SDS011;21103;51.358;12.412;2022-08-16T04:50:14;10.43;;;7.03;;
34890;SDS011;21103;51.358;12.412;2022-08-16T04:52:45;10.77;;;8.20;;
34890;SDS011;21103;51.358;12.412;2022-08-16T04:55:13;11.63;;;7.72;;
34890;SDS011;21103;51.358;12.412;2022-08-16T04:57:42;10.07;;;7.20;;
34890;SDS011;21103;51.358;12.412;2022-08-16T05:00:10;14.38;;;8.05;;
34890;SDS011;21103;51.358;12.412;2022-08-16T05:02:38;10.10;;;7.45;;
34890;SDS011;21103;51.358;12.412;2022-08-16T05:05:04;10.43;;;7.15;;
34890;SDS011;21103;51.358;12.412;2022-08-16T05:07:30;10.77;;;6.88;;
34890;SDS011;21103;51.358;12.412;2022-08-16T05:09:56;7.28;;;6.45;;
34890;SDS011;21103;51.358;12.412;2022-08-16T05:12:21;8.82;;;6.47;;
34890;SDS011;21103;51.358;12.412;2022-08-16T05:14:47;13.93;;;6.75;;
34890;SDS011;21103;51.358;12.412;2022-08-16T05:17:12;7.82;;;5.88;;
34890;SDS011;21103;51.358;12.412;2022-08-16T05:19:38;8.60;;;5.28;;
34890;SDS011;21103;51.358;12.412;2022-08-16T05:22:03;12.18;;;6.55;;
34890;SDS011;21103;51.358;12.412;2022-08-16T05:24:29;7.63;;;5.85;;
34890;SDS011;21103;51.358;12.412;2022-08-16T05:26:54;7.10;;;6.03;;
34890;SDS011;21103;51.358;12.412;2022-08-16T05:29:20;11.60;;;5.60;;
34890;SDS011;21103;51.358;12.412;2022-08-16T05:31:45;8.30;;;5.72;;
34890;SDS011;21103;51.358;12.412;2022-08-16T05:34:11;6.35;;;4.35;;
34890;SDS011;21103;51.358;12.412;2022-08-16T05:36:37;9.05;;;4.88;;
34890;SDS011;21103;51.358;12.412;2022-08-16T05:39:03;7.13;;;4.65;;
34890;SDS011;21103;51.358;12.412;2022-08-16T05:41:29;8.27;;;4.35;;
34890;SDS011;21103;51.358;12.412;2022-08-16T05:43:55;5.63;;;4.57;;
34890;SDS011;21103;51.358;12.412;2022-08-16T05:46:20;5.85;;;5.30;;
34890;SDS011;21103;51.358;12.412;2022-08-16T05:48:46;8.35;;;5.22;;
34890;SDS011;21103;51.358;12.412;2022-08-16T05:51:11;7.70;;;4.90;;
34890;SDS011;21103;51.358;12.412;2022-08-16T05:53:37;8.75;;;5.15;;
34890;SDS011;21103;51.358;12.412;2022-08-16T05:56:03;6.97;;;5.00;;
34890;SDS011;21103;51.358;12.412;2022-08-16T05:58:28;6.15;;;5.07;;
34890;SDS011;21103;51.358;12.412;2022-08-16T06:00:54;5.90;;;5.30;;
34890;SDS011;21103;51.358;12.412;2022-08-16T06:03:20;7.07;;;4.80;;
34890;SDS011;21103;51.358;12.412;2022-08-16T06:05:46;8.25;;;5.03;;
34890;SDS011;21103;51.358;12.412;2022-08-16T06:08:11;6.60;;;5.20;;
34890;SDS011;21103;51.358;12.412;2022-08-16T06:10:37;7.78;;;5.20;;
34890;SDS011;21103;51.358;12.412;2022-08-16T06:13:02;6.72;;;5.05;;
34890;SDS011;21103;51.358;12.412;2022-08-16T06:15:28;9.23;;;4.85;;
34890;SDS011;21103;51.358;12.412;2022-08-16T06:17:53;5.38;;;4.68;;
34890;SDS011;21103;51.358;12.412;2022-08-16T06:20:20;5.80;;;4.38;;
34890;SDS011;21103;51.358;12.412;2022-08-16T06:22:47;6.47;;;4.70;;
34890;SDS011;21103;51.358;12.412;2022-08-16T06:25:14;5.25;;;4.60;;
34890;SDS011;21103;51.358;12.412;2022-08-16T06:27:40;6.78;;;4.85;;
34890;SDS011;21103;51.358;12.412;2022-08-16T06:30:08;5.15;;;4.25;;
34890;SDS011;21103;51.358;12.412;2022-08-16T06:32:35;6.63;;;4.43;;
34890;SDS011;21103;51.358;12.412;2022-08-16T06:35:01;5.50;;;4.35;;
34890;SDS011;21103;51.358;12.412;2022-08-16T06:37:27;9.10;;;4.50;;
34890;SDS011;21103;51.358;12.412;2022-08-16T06:39:52;7.57;;;4.10;;
34890;SDS011;21103;51.358;12.412;2022-08-16T06:42:18;13.70;;;4.70;;
34890;SDS011;21103;51.358;12.412;2022-08-16T06:44:43;6.13;;;4.10;;
34890;SDS011;21103;51.358;12.412;2022-08-16T06:47:09;6.22;;;4.35;;
34890;SDS011;21103;51.358;12.412;2022-08-16T06:49:34;5.22;;;3.85;;
34890;SDS011;21103;51.358;12.412;2022-08-16T06:52:00;4.68;;;3.50;;
34890;SDS011;21103;51.358;12.412;2022-08-16T06:54:25;6.25;;;4.03;;
34890;SDS011;21103;51.358;12.412;2022-08-16T06:56:51;4.95;;;3.42;;
34890;SDS011;21103;51.358;12.412;2022-08-16T06:59:16;5.93;;;3.35;;
34890;SDS011;21103;51.358;12.412;2022-08-16T07:01:42;4.47;;;3.72;;
34890;SDS011;21103;51.358;12.412;2022-08-16T07:04:07;5.43;;;3.53;;
34890;SDS011;21103;51.358;12.412;2022-08-16T07:06:33;7.05;;;3.47;;
34890;SDS011;21103;51.358;12.412;2022-08-16T07:08:58;4.53;;;3.22;;
34890;SDS011;21103;51.358;12.412;2022-08-16T07:11:24;3.72;;;3.20;;
34890;SDS011;21103;51.358;12.412;2022-08-16T07:13:50;5.25;;;2.92;;
34890;SDS011;21103;51.358;12.412;2022-08-16T07:16:16;7.13;;;3.78;;
34890;SDS011;21103;51.358;12.412;2022-08-16T07:18:43;4.57;;;3.40;;
34890;SDS011;21103;51.358;12.412;2022-08-16T07:21:10;4.20;;;3.25;;
34890;SDS011;21103;51.358;12.412;2022-08-16T07:23:37;3.45;;;3.13;;
34890;SDS011;21103;51.358;12.412;2022-08-16T07:26:04;6.65;;;3.17;;
34890;SDS011;21103;51.358;12.412;2022-08-16T07:28:37;5.38;;;3.35;;
34890;SDS011;21103;51.358;12.412;2022-08-16T07:31:03;5.18;;;2.97;;
34890;SDS011;21103;51.358;12.412;2022-08-16T07:33:32;7.32;;;3.60;;
34890;SDS011;21103;51.358;12.412;2022-08-16T07:35:59;3.85;;;3.00;;
34890;SDS011;21103;51.358;12.412;2022-08-16T07:38:25;3.65;;;3.10;;
34890;SDS011;21103;51.358;12.412;2022-08-16T07:40:51;4.50;;;2.80;;
34890;SDS011;21103;51.358;12.412;2022-08-16T07:43:21;6.20;;;3.33;;
34890;SDS011;21103;51.358;12.412;2022-08-16T07:45:47;7.18;;;3.10;;
34890;SDS011;21103;51.358;12.412;2022-08-16T07:48:14;5.55;;;3.03;;
34890;SDS011;21103;51.358;12.412;2022-08-16T07:50:40;5.43;;;3.58;;
34890;SDS011;21103;51.358;12.412;2022-08-16T07:53:06;4.65;;;3.30;;
34890;SDS011;21103;51.358;12.412;2022-08-16T07:55:32;5.32;;;3.22;;
34890;SDS011;21103;51.358;12.412;2022-08-16T07:57:57;4.57;;;3.08;;
34890;SDS011;21103;51.358;12.412;2022-08-16T08:00:23;5.10;;;3.63;;
34890;SDS011;21103;51.358;12.412;2022-08-16T08:02:50;4.38;;;3.30;;
34890;SDS011;21103;51.358;12.412;2022-08-16T08:05:16;2.97;;;2.67;;
34890;SDS011;21103;51.358;12.412;2022-08-16T08:07:41;4.30;;;3.22;;
34890;SDS011;21103;51.358;12.412;2022-08-16T08:10:07;6.72;;;3.25;;
34890;SDS011;21103;51.358;12.412;2022-08-16T08:12:33;5.80;;;3.28;;
34890;SDS011;21103;51.358;12.412;2022-08-16T08:14:59;6.43;;;3.13;;
34890;SDS011;21103;51.358;12.412;2022-08-16T08:17:25;3.75;;;2.90;;
34890;SDS011;21103;51.358;12.412;2022-08-16T08:19:53;7.05;;;2.78;;
34890;SDS011;21103;51.358;12.412;2022-08-16T08:22:18;3.78;;;3.47;;
34890;SDS011;21103;51.358;12.412;2022-08-16T08:24:46;6.30;;;3.25;;
34890;SDS011;21103;51.358;12.412;2022-08-16T08:27:12;5.60;;;3.33;;
34890;SDS011;21103;51.358;12.412;2022-08-16T08:29:38;8.43;;;3.42;;
34890;SDS011;21103;51.358;12.412;2022-08-16T08:32:04;3.53;;;3.10;;
34890;SDS011;21103;51.358;12.412;2022-08-16T08:34:31;3.78;;;2.80;;
34890;SDS011;21103;51.358;12.412;2022-08-16T08:36:57;5.25;;;3.47;;
34890;SDS011;21103;51.358;12.412;2022-08-16T08:39:23;4.47;;;3.60;;
34890;SDS011;21103;51.358;12.412;2022-08-16T08:41:48;5.50;;;2.97;;
34890;SDS011;21103;51.358;12.412;2022-08-16T08:44:15;8.73;;;3.42;;
34890;SDS011;21103;51.358;12.412;2022-08-16T08:46:41;5.75;;;3.15;;
34890;SDS011;21103;51.358;12.412;2022-08-16T08:49:06;6.72;;;3.38;;
34890;SDS011;21103;51.358;12.412;2022-08-16T08:51:32;5.05;;;2.72;;
34890;SDS011;21103;51.358;12.412;2022-08-16T08:53:58;7.43;;;3.75;;
34890;SDS011;21103;51.358;12.412;2022-08-16T08:56:24;6.32;;;3.15;;
34890;SDS011;21103;51.358;12.412;2022-08-16T08:58:49;4.95;;;3.47;;
34890;SDS011;21103;51.358;12.412;2022-08-16T09:01:17;5.65;;;2.88;;
34890;SDS011;21103;51.358;12.412;2022-08-16T09:03:46;10.75;;;3.00;;
34890;SDS011;21103;51.358;12.412;2022-08-16T09:06:11;3.13;;;2.60;;
34890;SDS011;21103;51.358;12.412;2022-08-16T09:08:37;3.30;;;2.53;;
34890;SDS011;21103;51.358;12.412;2022-08-16T09:11:03;5.05;;;3.45;;
34890;SDS011;21103;51.358;12.412;2022-08-16T09:13:29;3.85;;;3.50;;
34890;SDS011;21103;51.358;12.412;2022-08-16T09:15:56;3.30;;;2.88;;
34890;SDS011;21103;51.358;12.412;2022-08-16T09:18:22;3.47;;;2.67;;
34890;SDS011;21103;51.358;12.412;2022-08-16T09:20:49;5.22;;;2.63;;
34890;SDS011;21103;51.358;12.412;2022-08-16T09:23:19;6.97;;;2.40;;
34890;SDS011;21103;51.358;12.412;2022-08-16T09:25:45;3.33;;;2.28;;
34890;SDS011;21103;51.358;12.412;2022-08-16T09:28:12;9.15;;;2.47;;
34890;SDS011;21103;51.358;12.412;2022-08-16T09:30:38;3.25;;;2.28;;
34890;SDS011;21103;51.358;12.412;2022-08-16T09:33:04;2.90;;;2.20;;
34890;SDS011;21103;51.358;12.412;2022-08-16T09:35:30;6.35;;;2.90;;
34890;SDS011;21103;51.358;12.412;2022-08-16T09:37:56;3.10;;;2.35;;
34890;SDS011;21103;51.358;12.412;2022-08-16T09:40:22;2.67;;;2.45;;
34890;SDS011;21103;51.358;12.412;2022-08-16T09:42:47;2.67;;;2.00;;
34890;SDS011;21103;51.358;12.412;2022-08-16T09:45:13;5.15;;;2.00;;
34890;SDS011;21103;51.358;12.412;2022-08-16T09:47:39;2.97;;;1.92;;
34890;SDS011;21103;51.358;12.412;2022-08-16T09:50:06;2.10;;;1.77;;
34890;SDS011;21103;51.358;12.412;2022-08-16T09:52:33;4.35;;;1.42;;
34890;SDS011;21103;51.358;12.412;2022-08-16T09:55:01;3.47;;;1.90;;
34890;SDS011;21103;51.358;12.412;2022-08-16T09:57:37;2.08;;;1.73;;
34890;SDS011;21103;51.358;12.412;2022-08-16T10:00:05;8.68;;;1.80;;
34890;SDS011;21103;51.358;12.412;2022-08-16T10:02:34;2.83;;;1.70;;
34890;SDS011;21103;51.358;12.412;2022-08-16T10:05:00;6.25;;;2.17;;
34890;SDS011;21103;51.358;12.412;2022-08-16T10:07:27;2.33;;;2.10;;
34890;SDS011;21103;51.358;12.412;2022-08-16T10:09:54;2.63;;;2.15;;
34890;SDS011;21103;51.358;12.412;2022-08-16T10:12:20;4.60;;;1.83;;
34890;SDS011;21103;51.358;12.412;2022-08-16T10:15:04;5.30;;;1.63;;
34890;SDS011;21103;51.358;12.412;2022-08-16T10:17:32;3.28;;;1.75;;
34890;SDS011;21103;51.358;12.412;2022-08-16T10:19:58;4.25;;;1.65;;
34890;SDS011;21103;51.358;12.412;2022-08-16T10:22:24;2.25;;;1.30;;
34890;SDS011;21103;51.358;12.412;2022-08-16T10:24:49;2.13;;;1.65;;
34890;SDS011;21103;51.358;12.412;2022-08-16T10:27:15;3.50;;;1.40;;
34890;SDS011;21103;51.358;12.412;2022-08-16T10:29:41;1.92;;;1.40;;
34890;SDS011;21103;51.358;12.412;2022-08-16T10:32:07;3.13;;;1.55;;
34890;SDS011;21103;51.358;12.412;2022-08-16T10:34:33;3.33;;;1.30;;
34890;SDS011;21103;51.358;12.412;2022-08-16T10:36:59;2.85;;;1.33;;
34890;SDS011;21103;51.358;12.412;2022-08-16T10:39:26;2.45;;;1.15;;
34890;SDS011;21103;51.358;12.412;2022-08-16T10:41:52;1.95;;;1.50;;
34890;SDS011;21103;51.358;12.412;2022-08-16T10:44:17;3.40;;;1.42;;
34890;SDS011;21103;51.358;12.412;2022-08-16T10:46:43;3.22;;;1.15;;
34890;SDS011;21103;51.358;12.412;2022-08-16T10:49:09;1.80;;;1.40;;
34890;SDS011;21103;51.358;12.412;2022-08-16T10:51:35;2.00;;;1.17;;
34890;SDS011;21103;51.358;12.412;2022-08-16T10:54:03;2.72;;;1.52;;
34890;SDS011;21103;51.358;12.412;2022-08-16T10:56:29;2.72;;;1.27;;
34890;SDS011;21103;51.358;12.412;2022-08-16T10:58:54;1.40;;;1.08;;
34890;SDS011;21103;51.358;12.412;2022-08-16T11:01:21;3.00;;;1.10;;
34890;SDS011;21103;51.358;12.412;2022-08-16T11:03:49;4.50;;;1.15;;
34890;SDS011;21103;51.358;12.412;2022-08-16T11:06:16;3.03;;;1.30;;
34890;SDS011;21103;51.358;12.412;2022-08-16T11:08:41;2.17;;;1.10;;
34890;SDS011;21103;51.358;12.412;2022-08-16T11:11:07;2.88;;;1.48;;
34890;SDS011;21103;51.358;12.412;2022-08-16T11:13:35;1.42;;;1.27;;
34890;SDS011;21103;51.358;12.412;2022-08-16T11:16:01;2.55;;;1.20;;
34890;SDS011;21103;51.358;12.412;2022-08-16T11:18:27;2.03;;;1.33;;
34890;SDS011;21103;51.358;12.412;2022-08-16T11:20:53;1.63;;;1.20;;
34890;SDS011;21103;51.358;12.412;2022-08-16T11:23:21;4.32;;;1.33;;
34890;SDS011;21103;51.358;12.412;2022-08-16T11:25:46;1.58;;;1.10;;
34890;SDS011;21103;51.358;12.412;2022-08-16T11:28:12;2.85;;;1.20;;
34890;SDS011;21103;51.358;12.412;2022-08-16T11:30:38;4.03;;;1.45;;
34890;SDS011;21103;51.358;12.412;2022-08-16T11:33:04;2.67;;;1.35;;
34890;SDS011;21103;51.358;12.412;2022-08-16T11:35:31;3.25;;;1.40;;
34890;SDS011;21103;51.358;12.412;2022-08-16T11:38:02;3.22;;;1.40;;
34890;SDS011;21103;51.358;12.412;2022-08-16T11:40:55;2.58;;;1.38;;
34890;SDS011;21103;51.358;12.412;2022-08-16T11:43:23;3.28;;;1.48;;
34890;SDS011;21103;51.358;12.412;2022-08-16T11:45:50;3.60;;;1.38;;
34890;SDS011;21103;51.358;12.412;2022-08-16T11:48:17;1.92;;;1.38;;
34890;SDS011;21103;51.358;12.412;2022-08-16T11:50:43;2.00;;;1.70;;
34890;SDS011;21103;51.358;12.412;2022-08-16T11:53:10;6.72;;;1.40;;
34890;SDS011;21103;51.358;12.412;2022-08-16T11:55:37;4.75;;;1.58;;
34890;SDS011;21103;51.358;12.412;2022-08-16T11:58:03;1.40;;;1.00;;
34890;SDS011;21103;51.358;12.412;2022-08-16T12:00:31;2.30;;;1.10;;
34890;SDS011;21103;51.358;12.412;2022-08-16T12:02:56;2.22;;;1.08;;
34890;SDS011;21103;51.358;12.412;2022-08-16T12:05:22;4.55;;;1.48;;
34890;SDS011;21103;51.358;12.412;2022-08-16T12:07:48;4.47;;;1.38;;
34890;SDS011;21103;51.358;12.412;2022-08-16T12:10:15;2.38;;;1.33;;
34890;SDS011;21103;51.358;12.412;2022-08-16T12:12:42;2.10;;;1.23;;
34890;SDS011;21103;51.358;12.412;2022-08-16T12:15:08;2.92;;;1.10;;
34890;SDS011;21103;51.358;12.412;2022-08-16T12:17:35;2.28;;;1.30;;
34890;SDS011;21103;51.358;12.412;2022-08-16T12:20:09;2.70;;;1.10;;
34890;SDS011;21103;51.358;12.412;2022-08-16T12:22:41;2.08;;;1.20;;
34890;SDS011;21103;51.358;12.412;2022-08-16T12:25:09;1.88;;;1.05;;
34890;SDS011;21103;51.358;12.412;2022-08-16T12:27:37;1.40;;;1.15;;
34890;SDS011;21103;51.358;12.412;2022-08-16T12:30:04;1.17;;;1.05;;
34890;SDS011;21103;51.358;12.412;2022-08-16T12:32:32;1.90;;;1.30;;
34890;SDS011;21103;51.358;12.412;2022-08-16T12:34:57;1.60;;;1.08;;
34890;SDS011;21103;51.358;12.412;2022-08-16T12:37:23;2.20;;;1.20;;
34890;SDS011;21103;51.358;12.412;2022-08-16T12:39:49;3.08;;;1.15;;
34890;SDS011;21103;51.358;12.412;2022-08-16T12:42:15;3.50;;;1.50;;
34890;SDS011;21103;51.358;12.412;2022-08-16T12:44:43;3.42;;;1.00;;
34890;SDS011;21103;51.358;12.412;2022-08-16T12:47:09;3.35;;;1.30;;
34890;SDS011;21103;51.358;12.412;2022-08-16T12:49:53;1.92;;;1.33;;
34890;SDS011;21103;51.358;12.412;2022-08-16T12:52:18;3.47;;;1.40;;
34890;SDS011;21103;51.358;12.412;2022-08-16T12:54:44;1.65;;;1.23;;
34890;SDS011;21103;51.358;12.412;2022-08-16T12:57:09;1.58;;;1.10;;
34890;SDS011;21103;51.358;12.412;2022-08-16T12:59:35;2.58;;;1.60;;
34890;SDS011;21103;51.358;12.412;2022-08-16T13:02:01;3.60;;;1.60;;
34890;SDS011;21103;51.358;12.412;2022-08-16T13:04:28;2.85;;;1.65;;
34890;SDS011;21103;51.358;12.412;2022-08-16T13:06:55;1.52;;;1.30;;
34890;SDS011;21103;51.358;12.412;2022-08-16T13:09:22;2.28;;;1.40;;
34890;SDS011;21103;51.358;12.412;2022-08-16T13:11:59;1.60;;;1.30;;
34890;SDS011;21103;51.358;12.412;2022-08-16T13:16:59;2.28;;;1.23;;
34890;SDS011;21103;51.358;12.412;2022-08-16T13:19:30;2.35;;;1.20;;
34890;SDS011;21103;51.358;12.412;2022-08-16T13:21:55;2.78;;;1.27;;
34890;SDS011;21103;51.358;12.412;2022-08-16T13:24:21;2.03;;;1.02;;
34890;SDS011;21103;51.358;12.412;2022-08-16T13:26:47;2.65;;;1.40;;
34890;SDS011;21103;51.358;12.412;2022-08-16T13:29:12;1.35;;;0.93;;
34890;SDS011;21103;51.358;12.412;2022-08-16T13:31:38;5.30;;;1.80;;
34890;SDS011;21103;51.358;12.412;2022-08-16T13:34:03;2.42;;;1.30;;
34890;SDS011;21103;51.358;12.412;2022-08-16T13:36:29;2.17;;;1.30;;
34890;SDS011;21103;51.358;12.412;2022-08-16T13:38:55;1.75;;;1.17;;
34890;SDS011;21103;51.358;12.412;2022-08-16T13:41:21;3.47;;;1.30;;
34890;SDS011;21103;51.358;12.412;2022-08-16T13:43:46;3.28;;;1.42;;
34890;SDS011;21103;51.358;12.412;2022-08-16T13:46:12;1.80;;;1.30;;
34890;SDS011;21103;51.358;12.412;2022-08-16T13:48:38;1.80;;;1.17;;
34890;SDS011;21103;51.358;12.412;2022-08-16T13:51:04;2.67;;;1.48;;
34890;SDS011;21103;51.358;12.412;2022-08-16T13:53:31;2.47;;;1.33;;
34890;SDS011;21103;51.358;12.412;2022-08-16T13:55:56;2.65;;;1.48;;
34890;SDS011;21103;51.358;12.412;2022-08-16T13:58:22;2.13;;;1.25;;
34890;SDS011;21103;51.358;12.412;2022-08-16T14:00:48;2.08;;;1.20;;
34890;SDS011;21103;51.358;12.412;2022-08-16T14:03:14;1.80;;;1.20;;
34890;SDS011;21103;51.358;12.412;2022-08-16T14:05:40;2.58;;;1.20;;
34890;SDS011;21103;51.358;12.412;2022-08-16T14:08:06;3.78;;;1.15;;
34890;SDS011;21103;51.358;12.412;2022-08-16T14:10:31;2.83;;;1.27;;
34890;SDS011;21103;51.358;12.412;2022-08-16T14:12:57;3.92;;;1.40;;
34890;SDS011;21103;51.358;12.412;2022-08-16T14:15:22;2.85;;;1.35;;
34890;SDS011;21103;51.358;12.412;2022-08-16T14:17:49;3.22;;;1.25;;
34890;SDS011;21103;51.358;12.412;2022-08-16T14:20:14;4.82;;;0.93;;
34890;SDS011;21103;51.358;12.412;2022-08-16T14:22:41;2.00;;;1.25;;
34890;SDS011;21103;51.358;12.412;2022-08-16T14:25:12;1.33;;;0.82;;